Terminal Aerodrome Forecast
Issued by NWS

Home | Current Version | Previous Version | Text Only | Print | Product List | Glossary On
Versions: 1 2 3 4 5 6 7 8 9 10 11 12 13
367
FTUS42 TJSJ 231138
TAFJPS
TAF
TJPS 231138Z 2312/2412 07007KT P6SM VCSH BKN030 BKN060 OVC090
      TEMPO 2312/2314 5SM -RA BKN025 OVC050
     FM231400 15009KT P6SM VCSH SCT030 BKN060
     FM232300 07005KT P6SM VCSH SCT030 SCT100
      AMD NOT SKED TIL 240300=

USA.gov is the U.S. government's official web portal to all federal, state and local government web resources and services.